Time;durP1;ratioP1;P1;durP2;ratioP2;P2;SDS_P1;SDS_P2;PMS_P1;PMS_P2;Temp;Humidity;BMP_temperature;BMP_pressure;BME280_temperature;BME280_humidity;BME280_pressure;Samples;Min_cycle;Max_cycle;Signal;HPM_P1;HPM_P2
2024/03/30 00:00:08;;;;;;;2.75;1.05;;;;;;;6.96;85.78;97759.16;4916108;29;20501;-60
2024/03/30 00:02:35;;;;;;;3.33;0.90;;;;;;;6.95;85.79;97763.88;4920921;29;20509;-60
2024/03/30 00:05:01;;;;;;;2.60;0.70;;;;;;;6.96;85.66;97764.66;4920726;29;20043;-60
2024/03/30 00:07:28;;;;;;;1.70;0.77;;;;;;;6.95;85.62;97768.56;4915687;29;20047;-60
2024/03/30 00:09:54;;;;;;;1.17;0.80;;;;;;;6.94;85.45;97767.78;4944657;29;20055;-59
2024/03/30 00:12:20;;;;;;;1.58;0.45;;;;;;;6.94;85.61;97767.00;4917597;29;20048;-60
2024/03/30 00:14:46;;;;;;;1.70;0.73;;;;;;;6.98;85.78;97773.28;4914087;29;20048;-59
2024/03/30 00:17:12;;;;;;;1.50;0.65;;;;;;;6.99;85.64;97772.13;4918293;29;20051;-59
2024/03/30 00:19:39;;;;;;;3.20;0.73;;;;;;;6.99;85.57;97774.88;4917599;29;20043;-60
2024/03/30 00:22:05;;;;;;;2.33;0.65;;;;;;;7.02;85.52;97779.56;4920641;29;20055;-59
2024/03/30 00:24:32;;;;;;;2.17;0.60;;;;;;;7.02;85.61;97776.81;4915936;29;20043;-59
2024/03/30 00:26:58;;;;;;;3.03;0.60;;;;;;;7.00;85.58;97787.44;4915467;29;20059;-59
2024/03/30 00:29:25;;;;;;;1.98;0.50;;;;;;;7.01;85.39;97778.00;4924161;29;20047;-59
2024/03/30 00:31:51;;;;;;;4.32;1.15;;;;;;;7.02;85.64;97785.84;4914969;29;20047;-59
2024/03/30 00:34:17;;;;;;;5.90;0.70;;;;;;;7.06;85.46;97781.16;4921286;29;20069;-60
2024/03/30 00:36:43;;;;;;;3.53;1.55;;;;;;;7.09;85.45;97785.09;4918009;29;20043;-60
2024/03/30 00:39:12;;;;;;;2.65;0.63;;;;;;;7.09;85.44;97782.34;4921554;29;20048;-60
2024/03/30 00:41:39;;;;;;;5.72;0.68;;;;;;;7.09;85.49;97785.09;4913780;29;20044;-59
2024/03/30 00:44:05;;;;;;;1.33;0.30;;;;;;;7.07;85.46;97773.69;4929573;29;20060;-59
2024/03/30 00:46:32;;;;;;;1.60;0.80;;;;;;;7.08;85.60;97781.53;4908259;29;20543;-59
2024/03/30 00:48:59;;;;;;;3.20;0.50;;;;;;;7.08;85.76;97784.28;4910294;29;20106;-59
2024/03/30 00:51:25;;;;;;;1.63;0.60;;;;;;;7.07;85.55;97788.22;4913742;29;20044;-59
2024/03/30 00:53:52;;;;;;;3.83;0.60;;;;;;;7.09;85.73;97787.84;4928846;29;20062;-60
2024/03/30 00:56:18;;;;;;;1.27;0.30;;;;;;;7.09;85.81;97780.38;4912735;29;20052;-60
2024/03/30 00:58:45;;;;;;;5.45;0.57;;;;;;;7.06;85.67;97783.91;4927929;29;20052;-60
2024/03/30 01:01:12;;;;;;;5.28;1.23;;;;;;;7.02;85.82;97791.38;4922042;29;20048;-59
2024/03/30 01:03:38;;;;;;;1.42;0.90;;;;;;;7.02;85.86;97793.31;4909954;29;20553;-59
2024/03/30 01:06:04;;;;;;;3.28;0.60;;;;;;;6.99;86.19;97792.16;4907674;29;20526;-59
2024/03/30 01:08:30;;;;;;;3.25;0.93;;;;;;;6.99;86.23;97796.88;4911246;29;20055;-60
2024/03/30 01:11:00;;;;;;;1.30;0.50;;;;;;;6.97;86.59;97796.47;4912490;29;20060;-59
2024/03/30 01:13:27;;;;;;;3.78;0.73;;;;;;;6.98;86.55;97800.81;4912136;29;20052;-60
2024/03/30 01:15:54;;;;;;;3.92;0.70;;;;;;;7.00;86.65;97792.94;4901181;29;20040;-60
2024/03/30 01:18:20;;;;;;;3.40;1.23;;;;;;;7.02;86.50;97801.56;4907048;29;20581;-60
2024/03/30 01:20:50;;;;;;;4.65;1.42;;;;;;;6.99;86.80;97800.41;4912106;29;20058;-60
2024/03/30 01:23:19;;;;;;;3.13;0.82;;;;;;;6.98;86.83;97807.09;4910157;29;20066;-61
2024/03/30 01:25:45;;;;;;;2.80;0.65;;;;;;;6.97;86.95;97799.22;4908460;29;20753;-60
2024/03/30 01:28:12;;;;;;;4.65;0.85;;;;;;;6.98;87.15;97803.56;4911052;29;20501;-60
2024/03/30 01:30:39;;;;;;;3.13;1.42;;;;;;;6.97;87.07;97804.72;4912522;29;20673;-59
2024/03/30 01:33:05;;;;;;;4.18;1.25;;;;;;;6.95;87.12;97801.59;4900850;29;20071;-60
2024/03/30 01:35:32;;;;;;;2.72;0.90;;;;;;;6.92;87.34;97796.88;4912149;29;20082;-59
2024/03/30 01:37:58;;;;;;;3.85;0.98;;;;;;;6.91;87.36;97800.81;4924119;29;20048;-60
2024/03/30 01:40:24;;;;;;;1.40;0.57;;;;;;;6.90;87.56;97804.72;4924274;29;20040;-60
2024/03/30 01:42:50;;;;;;;3.75;0.75;;;;;;;6.89;87.59;97805.88;4911380;29;20083;-59
2024/03/30 01:45:17;;;;;;;5.60;1.05;;;;;;;6.88;87.86;97807.09;4902003;29;20071;-60
2024/03/30 01:47:43;;;;;;;4.38;0.70;;;;;;;6.89;87.79;97819.63;4911224;29;20063;-59
2024/03/30 01:50:09;;;;;;;10.00;2.03;;;;;;;6.89;87.86;97816.88;4911844;29;20086;-59
2024/03/30 01:52:36;;;;;;;5.50;0.77;;;;;;;6.88;87.83;97818.09;4919189;29;20055;-59
2024/03/30 01:55:04;;;;;;;2.28;0.70;;;;;;;6.87;88.11;97817.28;4910950;29;20055;-59
2024/03/30 01:57:32;;;;;;;4.05;0.65;;;;;;;6.87;88.15;97811.00;4927276;29;20048;-60
2024/03/30 01:59:59;;;;;;;2.45;1.00;;;;;;;6.85;88.23;97816.91;4912166;29;20079;-59
2024/03/30 02:02:27;;;;;;;9.15;0.90;;;;;;;6.85;88.25;97813.38;4911812;29;20071;-59
2024/03/30 02:04:54;;;;;;;4.47;0.82;;;;;;;6.82;88.49;97814.16;4923337;29;20517;-59
2024/03/30 02:07:21;;;;;;;5.45;0.75;;;;;;;6.79;88.52;97810.22;4913663;29;20047;-59
2024/03/30 02:09:48;;;;;;;3.90;0.80;;;;;;;6.77;88.66;97823.56;4911130;29;20102;-59
2024/03/30 02:12:14;;;;;;;2.25;1.00;;;;;;;6.72;88.64;97824.72;4911470;29;20056;-59
2024/03/30 02:14:42;;;;;;;6.22;1.55;;;;;;;6.70;88.81;97827.09;4912102;29;20058;-60
2024/03/30 02:17:09;;;;;;;5.30;0.90;;;;;;;6.68;88.88;97828.66;4911790;29;20052;-60
2024/03/30 02:19:42;;;;;;;8.15;1.38;;;;;;;6.66;88.95;97834.56;4908636;29;20414;-59
2024/03/30 02:22:08;;;;;;;1.50;0.80;;;;;;;6.65;89.14;97841.22;4912076;29;20052;-60
2024/03/30 02:24:34;;;;;;;5.47;1.13;;;;;;;6.66;89.10;97842.81;4911251;29;20431;-59
2024/03/30 02:27:00;;;;;;;2.03;0.70;;;;;;;6.64;89.16;97842.41;4912424;29;20051;-60
2024/03/30 02:29:32;;;;;;;2.67;0.60;;;;;;;6.64;89.33;97852.63;4909351;29;20048;-59
2024/03/30 02:31:59;;;;;;;3.13;0.70;;;;;;;6.60;89.29;97847.09;4925961;29;20054;-60
2024/03/30 02:34:25;;;;;;;4.22;1.10;;;;;;;6.58;89.33;97865.94;4911990;29;20502;-60
2024/03/30 02:36:52;;;;;;;1.85;1.02;;;;;;;6.57;89.64;97864.38;4922078;29;20040;-60
2024/03/30 02:39:18;;;;;;;5.55;2.97;;;;;;;6.57;89.58;97858.88;4908335;29;20367;-60
2024/03/30 02:41:45;;;;;;;4.22;0.70;;;;;;;6.57;89.85;97863.56;4908566;29;20060;-60
2024/03/30 02:44:11;;;;;;;4.43;1.10;;;;;;;6.58;89.68;97865.94;4924436;29;20067;-60
2024/03/30 02:46:38;;;;;;;4.80;0.75;;;;;;;6.58;89.75;97860.44;4895748;29;20533;-59
2024/03/30 02:49:04;;;;;;;3.38;1.15;;;;;;;6.59;89.75;97864.75;4908903;29;20059;-60
2024/03/30 02:51:30;;;;;;;6.72;1.17;;;;;;;6.60;89.97;97865.53;4911729;29;20047;-60
2024/03/30 02:53:56;;;;;;;1.88;1.50;;;;;;;6.61;89.89;97869.88;4895951;29;20047;-61
2024/03/30 02:56:23;;;;;;;6.40;1.25;;;;;;;6.60;90.13;97874.59;4913510;29;20451;-60
2024/03/30 02:58:49;;;;;;;3.05;1.08;;;;;;;6.61;90.12;97881.66;4911919;29;20561;-60
2024/03/30 03:01:15;;;;;;;2.47;0.88;;;;;;;6.62;90.20;97883.22;5014135;23;20067;-61
2024/03/30 03:03:42;;;;;;;1.20;0.73;;;;;;;6.64;90.29;97896.59;4934363;29;20051;-59
2024/03/30 03:06:08;;;;;;;5.22;1.10;;;;;;;6.65;90.56;97900.91;4929851;29;20047;-61
2024/03/30 03:08:35;;;;;;;3.78;1.20;;;;;;;6.65;90.41;97898.94;4935099;29;20047;-61
2024/03/30 03:11:01;;;;;;;6.05;1.60;;;;;;;6.67;90.41;97896.59;4934001;29;20051;-59
2024/03/30 03:13:27;;;;;;;2.95;0.82;;;;;;;6.70;90.53;97897.78;4934432;29;20051;-59
2024/03/30 03:15:54;;;;;;;7.60;1.25;;;;;;;6.72;90.39;97904.44;4934107;29;20054;-60
2024/03/30 03:18:20;;;;;;;5.50;1.02;;;;;;;6.75;90.35;97891.91;4935093;29;20417;-60
2024/03/30 03:20:47;;;;;;;8.68;1.83;;;;;;;6.79;90.40;97897.41;4933893;29;20048;-60
2024/03/30 03:23:13;;;;;;;6.82;2.33;;;;;;;6.81;90.28;97895.06;4934794;29;20047;-60
2024/03/30 03:25:39;;;;;;;4.13;1.20;;;;;;;6.81;90.49;97900.56;4934576;29;20039;-59
2024/03/30 03:28:05;;;;;;;5.60;1.40;;;;;;;6.80;90.54;97899.00;4932276;29;20055;-60
2024/03/30 03:30:32;;;;;;;2.03;1.35;;;;;;;6.79;90.50;97900.94;4934545;29;20069;-59
2024/03/30 03:32:59;;;;;;;2.60;1.10;;;;;;;6.75;90.42;97900.94;4934577;29;20300;-60
2024/03/30 03:35:26;;;;;;;4.32;1.35;;;;;;;6.71;90.49;97902.91;4935705;29;20047;-60
2024/03/30 03:37:52;;;;;;;4.93;1.30;;;;;;;6.68;90.74;97913.88;4930248;29;20051;-59
2024/03/30 03:40:18;;;;;;;6.20;3.30;;;;;;;6.63;90.58;97912.31;4934950;29;20062;-60
2024/03/30 03:42:46;;;;;;;3.40;1.10;;;;;;;6.59;90.71;97908.72;4933497;29;20799;-59
2024/03/30 03:45:12;;;;;;;4.22;2.05;;;;;;;6.54;90.83;97911.88;4931670;29;20060;-60
2024/03/30 03:47:38;;;;;;;2.55;1.08;;;;;;;6.48;90.83;97920.88;4930175;29;20051;-60
2024/03/30 03:50:05;;;;;;;2.20;1.35;;;;;;;6.41;90.92;97910.63;4935772;29;20047;-59
2024/03/30 03:52:31;;;;;;;4.57;2.13;;;;;;;6.33;91.10;97908.25;4935193;29;20780;-59
2024/03/30 03:54:57;;;;;;;3.85;1.20;;;;;;;6.26;91.05;97903.50;4950698;29;20043;-59
2024/03/30 03:57:24;;;;;;;5.65;1.30;;;;;;;6.22;91.41;97901.94;4932175;29;20421;-60
2024/03/30 03:59:51;;;;;;;3.15;1.00;;;;;;;6.20;91.41;97910.53;4936433;29;20047;-60
2024/03/30 04:02:17;;;;;;;2.80;0.90;;;;;;;6.14;91.43;97914.84;4932499;29;20429;-60
2024/03/30 04:04:43;;;;;;;4.93;2.17;;;;;;;6.07;91.28;97912.03;4933761;28;20058;-60
2024/03/30 04:07:10;;;;;;;6.28;1.42;;;;;;;6.00;91.29;97912.81;4933949;29;20069;-60
2024/03/30 04:09:36;;;;;;;1.40;1.13;;;;;;;5.95;91.46;97924.16;4931220;29;20167;-60
2024/03/30 04:12:02;;;;;;;2.08;1.20;;;;;;;5.91;91.46;97926.06;4933532;29;20058;-59
2024/03/30 04:14:29;;;;;;;1.95;1.15;;;;;;;5.88;91.61;97920.53;4934038;29;20055;-60
2024/03/30 04:16:55;;;;;;;2.67;1.70;;;;;;;5.82;91.43;97930.31;4933720;29;20047;-59
2024/03/30 04:19:21;;;;;;;4.80;1.27;;;;;;;5.75;91.80;97931.03;4930553;29;20532;-60
2024/03/30 04:21:50;;;;;;;4.05;1.30;;;;;;;5.72;91.84;97929.03;4934245;29;20086;-59
2024/03/30 04:24:16;;;;;;;1.92;1.20;;;;;;;5.67;91.65;97920.38;4946372;29;20079;-60
2024/03/30 04:26:43;;;;;;;4.72;1.38;;;;;;;5.65;91.79;97918.03;4933655;29;20051;-59
2024/03/30 04:29:10;;;;;;;2.30;1.08;;;;;;;5.64;91.95;97932.13;4934009;29;20050;-59
2024/03/30 04:31:36;;;;;;;7.43;1.33;;;;;;;5.59;91.66;97929.75;4933508;29;20874;-59
2024/03/30 04:34:02;;;;;;;5.93;1.38;;;;;;;5.59;91.90;97924.25;4933595;29;20580;-59
2024/03/30 04:36:29;;;;;;;1.10;1.10;;;;;;;5.56;91.89;97931.28;4946302;29;20587;-60
2024/03/30 04:38:55;;;;;;;4.15;0.90;;;;;;;5.55;92.40;97924.22;4930974;29;20425;-60
2024/03/30 04:41:22;;;;;;;5.28;1.13;;;;;;;5.60;92.24;97932.09;4930505;29;20117;-60
2024/03/30 04:43:48;;;;;;;3.83;1.40;;;;;;;5.67;92.32;97932.16;4929684;29;20055;-59
2024/03/30 04:46:14;;;;;;;1.73;0.85;;;;;;;5.73;92.19;97929.84;4933167;29;20043;-60
2024/03/30 04:48:41;;;;;;;3.08;0.70;;;;;;;5.76;91.93;97929.88;4933747;29;20047;-59
2024/03/30 04:51:07;;;;;;;2.58;0.50;;;;;;;5.80;91.80;97924.41;4932603;29;20047;-59
2024/03/30 04:53:35;;;;;;;2.05;0.75;;;;;;;5.82;91.55;97933.06;4931290;29;20047;-59
2024/03/30 04:56:03;;;;;;;1.27;0.73;;;;;;;5.82;91.76;97933.06;4933902;29;20062;-59
2024/03/30 04:58:31;;;;;;;2.92;0.75;;;;;;;5.82;91.63;97935.78;4949083;29;20062;-59
2024/03/30 05:01:08;;;;;;;3.40;0.90;;;;;;;5.83;91.84;97935.41;4932596;29;20048;-59
2024/03/30 05:03:35;;;;;;;2.65;1.13;;;;;;;5.83;91.71;97937.34;4933575;29;20724;-60
2024/03/30 05:06:02;;;;;;;2.00;1.08;;;;;;;5.83;91.61;97937.34;4933136;29;20063;-59
2024/03/30 05:08:29;;;;;;;1.80;0.50;;;;;;;5.84;91.48;97941.69;4933479;29;20047;-60
2024/03/30 05:10:56;;;;;;;7.68;1.60;;;;;;;5.84;91.44;97941.69;4932446;29;20051;-59
2024/03/30 05:13:23;;;;;;;9.05;0.95;;;;;;;5.83;91.63;97942.84;4932997;29;20058;-59
2024/03/30 05:15:50;;;;;;;2.85;0.50;;;;;;;5.82;91.42;97938.53;4933506;29;20054;-60
2024/03/30 05:18:18;;;;;;;4.35;1.23;;;;;;;5.81;91.23;97948.72;4913354;29;20729;-60
2024/03/30 05:21:02;;;;;;;2.28;0.60;;;;;;;5.81;91.54;97947.94;4932820;29;20063;-59
2024/03/30 05:23:32;;;;;;;3.78;0.55;;;;;;;5.80;91.50;97946.38;4931856;29;20799;-59
2024/03/30 05:26:00;;;;;;;4.10;1.55;;;;;;;5.79;91.34;97961.25;4932839;29;20132;-59
2024/03/30 05:28:28;;;;;;;6.00;1.08;;;;;;;5.79;91.26;97950.28;4931009;29;20039;-60
2024/03/30 05:30:55;;;;;;;3.50;0.82;;;;;;;5.78;91.42;97951.44;4933906;29;20043;-59
2024/03/30 05:33:24;;;;;;;4.97;0.70;;;;;;;5.76;91.32;97959.28;4931707;29;20586;-60
2024/03/30 05:35:51;;;;;;;5.63;0.90;;;;;;;5.75;91.46;97955.72;4933043;29;20062;-59
2024/03/30 05:38:18;;;;;;;3.53;0.90;;;;;;;5.72;91.25;97961.22;4913275;29;20071;-59
2024/03/30 05:40:45;;;;;;;6.07;1.00;;;;;;;5.69;91.28;97967.47;4930929;29;20080;-59
2024/03/30 05:43:12;;;;;;;4.43;0.75;;;;;;;5.68;91.39;97976.84;4932586;29;20577;-59
2024/03/30 05:45:40;;;;;;;10.40;0.82;;;;;;;5.65;91.33;97972.91;4932374;29;20501;-60
2024/03/30 05:48:07;;;;;;;8.30;0.95;;;;;;;5.64;91.49;97976.06;4931497;29;20075;-59
2024/03/30 05:50:34;;;;;;;2.83;0.90;;;;;;;5.65;91.38;97977.59;4932440;29;20043;-59
2024/03/30 05:53:02;;;;;;;7.22;1.75;;;;;;;5.66;91.40;97984.69;4931320;29;20051;-60
2024/03/30 05:55:28;;;;;;;5.28;1.30;;;;;;;5.64;91.23;97970.56;4948657;29;20118;-60
2024/03/30 05:57:55;;;;;;;6.47;0.95;;;;;;;5.66;91.56;97979.19;4931464;29;20058;-60
2024/03/30 06:00:22;;;;;;;4.13;0.88;;;;;;;5.67;91.59;97975.28;4933152;29;20051;-60
2024/03/30 06:02:48;;;;;;;2.10;1.10;;;;;;;5.67;91.25;97972.53;4928747;29;20091;-59
2024/03/30 06:05:15;;;;;;;8.57;1.10;;;;;;;5.67;91.36;97981.56;4898282;29;20070;-60
2024/03/30 06:07:42;;;;;;;2.17;0.60;;;;;;;5.65;91.53;97983.09;4912543;29;20469;-60
2024/03/30 06:10:10;;;;;;;7.15;1.15;;;;;;;5.67;91.63;97986.25;4911218;29;20052;-59
2024/03/30 06:12:37;;;;;;;10.57;1.42;;;;;;;5.66;91.55;97999.19;4905624;29;20062;-59
2024/03/30 06:15:05;;;;;;;11.40;1.75;;;;;;;5.67;91.58;98009.00;4912241;29;20168;-60
2024/03/30 06:17:38;;;;;;;4.10;0.85;;;;;;;5.67;91.50;97997.22;4912422;29;20056;-59
2024/03/30 06:20:07;;;;;;;8.55;1.00;;;;;;;5.66;91.45;98014.88;4908848;29;20055;-60
2024/03/30 06:22:33;;;;;;;10.25;2.88;;;;;;;5.67;91.61;98010.94;4913009;29;20059;-59
2024/03/30 06:25:01;;;;;;;2.88;0.95;;;;;;;5.67;91.49;98019.19;4927100;29;20773;-59
2024/03/30 06:27:32;;;;;;;4.85;1.27;;;;;;;5.68;91.26;98020.78;4912490;29;20414;-60
2024/03/30 06:29:58;;;;;;;2.35;0.73;;;;;;;5.65;91.46;98018.78;4914993;29;20060;-60
2024/03/30 06:32:25;;;;;;;10.23;1.20;;;;;;;5.64;91.47;98025.44;4916681;29;20052;-59
2024/03/30 06:34:51;;;;;;;3.70;1.08;;;;;;;5.64;91.39;98030.94;4913852;29;20068;-60
2024/03/30 06:37:17;;;;;;;8.13;1.08;;;;;;;5.64;91.45;98026.22;4916094;29;20051;-60
2024/03/30 06:45:13;;;;;;;10.60;1.75;;;;;;;5.64;91.57;98050.16;4928591;29;20051;-59
2024/03/30 06:47:40;;;;;;;9.32;1.95;;;;;;;5.64;91.68;98050.16;4916690;29;20430;-59
2024/03/30 06:50:07;;;;;;;7.45;1.40;;;;;;;5.64;91.45;98048.19;4928318;29;20067;-59
2024/03/30 06:52:33;;;;;;;5.10;1.10;;;;;;;5.66;91.51;98056.06;4911168;29;20193;-59
2024/03/30 06:55:00;;;;;;;2.13;0.88;;;;;;;5.66;91.86;98048.59;4932362;29;20078;-60
2024/03/30 06:57:26;;;;;;;10.98;1.48;;;;;;;5.67;91.45;98052.91;4915937;29;20056;-60
2024/03/30 06:59:52;;;;;;;5.95;1.00;;;;;;;5.69;91.75;98049.81;4916364;29;20418;-60
2024/03/30 07:02:19;;;;;;;5.07;1.50;;;;;;;5.70;91.78;98049.41;4929297;29;20055;-59
2024/03/30 07:04:45;;;;;;;5.88;0.80;;;;;;;5.73;91.77;98056.09;4930585;29;20051;-60
2024/03/30 07:07:12;;;;;;;4.22;1.13;;;;;;;5.75;91.59;98062.00;4935121;29;20078;-60
2024/03/30 07:09:38;;;;;;;5.55;1.63;;;;;;;5.78;91.88;98064.00;4934265;29;20424;-60
2024/03/30 07:12:04;;;;;;;4.53;0.98;;;;;;;5.80;91.87;98065.19;4934952;29;20071;-59
2024/03/30 07:14:31;;;;;;;7.20;1.63;;;;;;;5.84;91.81;98067.97;4934256;29;20057;-59
2024/03/30 07:16:57;;;;;;;12.10;2.53;;;;;;;5.90;91.72;98072.00;4933674;29;20069;-60
2024/03/30 07:19:23;;;;;;;10.93;2.38;;;;;;;5.93;91.61;98073.97;4935302;29;20058;-59
2024/03/30 07:21:50;;;;;;;10.00;2.75;;;;;;;5.98;91.72;98079.13;4934613;29;20066;-60
2024/03/30 07:24:17;;;;;;;4.05;1.00;;;;;;;6.01;91.55;98079.13;4934721;29;20058;-60
2024/03/30 07:26:44;;;;;;;6.32;1.15;;;;;;;6.08;91.29;98083.91;4949612;29;20528;-59
2024/03/30 07:29:11;;;;;;;5.45;1.60;;;;;;;6.14;91.38;98088.66;4931494;29;20043;-60
2024/03/30 07:31:37;;;;;;;10.15;1.30;;;;;;;6.20;91.18;98085.56;4930255;29;20402;-60
2024/03/30 07:34:03;;;;;;;4.60;1.33;;;;;;;6.21;91.16;98090.69;4931917;29;20051;-59
2024/03/30 07:36:29;;;;;;;11.25;2.05;;;;;;;6.26;91.36;98087.59;4930250;29;20044;-59
2024/03/30 07:38:56;;;;;;;6.90;1.48;;;;;;;6.31;91.17;98091.91;4934303;29;20105;-59
2024/03/30 07:41:22;;;;;;;6.25;1.42;;;;;;;6.34;91.10;98108.44;4932289;29;20063;-61
2024/03/30 07:43:48;;;;;;;10.05;1.35;;;;;;;6.38;91.24;98106.50;4927801;29;20484;-59
2024/03/30 07:46:14;;;;;;;4.30;1.27;;;;;;;6.42;91.06;98110.06;4933287;29;20048;-60
2024/03/30 07:48:41;;;;;;;4.30;1.50;;;;;;;6.49;91.22;98121.13;4934830;29;20452;-60
2024/03/30 07:51:07;;;;;;;8.85;1.45;;;;;;;6.54;91.11;98106.25;4934167;29;20462;-59
2024/03/30 07:53:33;;;;;;;6.22;1.85;;;;;;;6.60;91.11;98105.50;4925528;29;20055;-60
2024/03/30 07:55:59;;;;;;;5.15;2.03;;;;;;;6.65;91.06;98110.63;4931889;29;20043;-60
2024/03/30 07:58:26;;;;;;;7.38;1.30;;;;;;;6.72;91.09;98107.91;4933534;29;20050;-60
2024/03/30 08:00:52;;;;;;;4.53;1.17;;;;;;;6.78;91.05;98113.84;4917861;29;20043;-59
2024/03/30 08:03:18;;;;;;;4.10;0.90;;;;;;;6.84;91.18;98108.78;4949832;29;20044;-60
2024/03/30 08:06:00;;;;;;;3.55;1.15;;;;;;;6.90;91.14;98113.53;4949706;29;20051;-60
2024/03/30 08:08:27;;;;;;;12.40;1.42;;;;;;;6.99;91.11;98116.72;4935156;29;20043;-60
2024/03/30 08:10:53;;;;;;;6.90;1.48;;;;;;;7.08;90.96;98124.63;4950055;29;20413;-60
2024/03/30 08:13:19;;;;;;;5.90;1.33;;;;;;;7.15;91.08;98122.69;4949852;29;20051;-60
2024/03/30 08:15:46;;;;;;;10.63;2.78;;;;;;;7.23;91.12;98120.75;4934285;29;20043;-60
2024/03/30 08:18:12;;;;;;;9.75;1.85;;;;;;;7.29;90.80;98113.72;4951114;28;20063;-60
2024/03/30 08:20:39;;;;;;;6.95;1.55;;;;;;;7.37;91.00;98120.81;4933744;29;20055;-60
2024/03/30 08:23:05;;;;;;;6.85;1.35;;;;;;;7.46;91.04;98129.50;4929516;29;20055;-60
2024/03/30 08:25:34;;;;;;;5.80;1.63;;;;;;;7.56;91.12;98138.97;4933911;29;20395;-60
2024/03/30 08:28:02;;;;;;;12.95;3.20;;;;;;;7.66;91.19;98128.00;4949777;29;20059;-61
2024/03/30 08:30:29;;;;;;;9.20;1.10;;;;;;;7.78;91.04;98141.38;4949732;29;20425;-60
2024/03/30 08:32:55;;;;;;;3.15;1.40;;;;;;;7.90;91.32;98143.00;4934017;29;20055;-60
2024/03/30 08:35:22;;;;;;;7.78;1.45;;;;;;;8.02;91.35;98141.84;4932187;29;20071;-60
2024/03/30 08:37:48;;;;;;;9.20;3.17;;;;;;;8.15;91.43;98148.56;4944345;29;20044;-61
2024/03/30 08:40:14;;;;;;;8.10;1.27;;;;;;;8.27;92.00;98150.94;4932083;29;20050;-60
2024/03/30 08:42:40;;;;;;;4.50;1.20;;;;;;;8.38;92.47;98147.03;4941294;28;20050;-59
2024/03/30 08:45:07;;;;;;;2.53;0.77;;;;;;;8.49;93.31;98138.75;4948075;29;20062;-63
2024/03/30 08:47:33;;;;;;;8.18;1.48;;;;;;;8.62;94.29;98139.94;4933040;29;20062;-60
2024/03/30 08:50:00;;;;;;;11.02;1.20;;;;;;;8.83;95.19;98141.88;4931128;29;20058;-62
2024/03/30 08:52:26;;;;;;;9.77;1.63;;;;;;;9.04;95.89;98144.59;4927540;29;20051;-61
2024/03/30 08:54:52;;;;;;;8.00;1.30;;;;;;;9.29;96.69;98153.59;4928621;29;20070;-60
2024/03/30 08:57:19;;;;;;;6.68;1.13;;;;;;;9.55;97.89;98157.84;4931014;29;20905;-60
2024/03/30 08:59:49;;;;;;;10.00;2.15;;;;;;;9.92;99.59;98160.81;4926948;29;20059;-61
2024/03/30 09:02:18;;;;;;;7.88;1.30;;;;;;;10.39;100.00;98159.34;4943287;29;20060;-61
2024/03/30 09:04:45;;;;;;;8.45;1.40;;;;;;;11.08;100.00;98159.13;4932516;29;20062;-60
2024/03/30 09:07:12;;;;;;;7.13;1.67;;;;;;;11.85;99.77;98168.56;4947821;29;20051;-60
2024/03/30 09:09:39;;;;;;;6.47;1.20;;;;;;;11.99;96.62;98173.13;4930286;29;20048;-60
2024/03/30 09:12:05;;;;;;;11.32;3.05;;;;;;;12.30;97.54;98169.13;4930010;29;20066;-60
2024/03/30 09:14:35;;;;;;;7.65;1.60;;;;;;;13.09;93.97;98174.97;4932268;29;20062;-60
2024/03/30 09:17:02;;;;;;;9.02;1.55;;;;;;;13.66;90.31;98177.47;4916170;29;20055;-60
2024/03/30 09:19:29;;;;;;;10.48;1.73;;;;;;;13.48;88.35;98179.81;4931516;29;20058;-59
2024/03/30 09:21:55;;;;;;;9.82;1.67;;;;;;;13.32;86.23;98172.16;4931870;29;20062;-60
2024/03/30 09:24:21;;;;;;;8.30;1.25;;;;;;;12.96;86.31;98180.34;4932526;29;20047;-59
2024/03/30 09:26:48;;;;;;;10.77;2.10;;;;;;;13.39;84.95;98172.84;4933179;29;20077;-59
2024/03/30 09:29:14;;;;;;;5.88;2.30;;;;;;;13.73;83.12;98183.69;4933298;29;20580;-61
2024/03/30 09:31:40;;;;;;;9.93;1.58;;;;;;;14.67;81.01;98179.22;4932714;29;20468;-59
2024/03/30 09:34:07;;;;;;;9.68;2.80;;;;;;;15.57;78.32;98177.28;4932146;29;20059;-59
2024/03/30 09:36:33;;;;;;;9.13;2.35;;;;;;;16.27;76.17;98191.22;4930304;29;20058;-59
2024/03/30 09:38:59;;;;;;;10.15;1.48;;;;;;;16.91;74.01;98190.00;4932155;29;20585;-59
2024/03/30 09:41:31;;;;;;;6.85;0.95;;;;;;;16.52;71.76;98196.00;4930161;29;20058;-59
2024/03/30 09:43:57;;;;;;;;;;;;;;;15.30;73.64;98198.34;4931994;29;20048;-59
2024/03/30 09:46:25;;;;;;;10.13;1.15;;;;;;;14.24;72.44;98184.97;4927070;29;19950;-60
2024/03/30 09:48:52;;;;;;;10.55;1.35;;;;;;;13.61;74.25;98192.66;4946777;29;20391;-60
2024/03/30 09:51:19;;;;;;;3.75;1.17;;;;;;;13.41;74.91;98200.97;4931557;29;20062;-59
2024/03/30 09:53:47;;;;;;;9.80;1.50;;;;;;;13.63;73.23;98195.81;4929530;29;20747;-59
2024/03/30 09:56:15;;;;;;;5.93;2.35;;;;;;;13.38;72.77;98201.03;4928487;29;20059;-59
2024/03/30 09:58:43;;;;;;;9.73;2.20;;;;;;;13.07;73.04;98205.97;4929949;29;20051;-59
2024/03/30 10:01:11;;;;;;;10.60;2.67;;;;;;;12.70;73.66;98206.16;4927022;29;20051;-60
2024/03/30 10:03:37;;;;;;;8.18;1.80;;;;;;;12.37;73.97;98205.06;4930390;29;20051;-60
2024/03/30 10:06:08;;;;;;;11.35;1.55;;;;;;;12.52;75.07;98209.19;4944962;29;20421;-62
2024/03/30 10:08:41;;;;;;;10.18;3.38;;;;;;;13.67;72.70;98206.84;4929099;29;20055;-60
2024/03/30 10:11:12;;;;;;;13.48;3.28;;;;;;;14.90;70.35;98220.84;4938425;29;20042;-60
2024/03/30 10:14:00;;;;;;;9.10;2.03;;;;;;;15.89;68.85;98221.03;4931633;29;20048;-59
2024/03/30 10:16:26;;;;;;;12.82;4.40;;;;;;;16.59;67.63;98239.75;4930158;29;20469;-59
2024/03/30 10:18:53;;;;;;;20.23;7.25;;;;;;;17.07;66.58;98233.81;4931626;29;20043;-60
2024/03/30 10:21:20;;;;;;;17.10;5.45;;;;;;;17.55;65.35;98235.41;4946837;29;20062;-60
2024/03/30 10:23:50;;;;;;;15.85;6.78;;;;;;;17.96;64.60;98237.13;4925300;29;20051;-61
2024/03/30 10:26:18;;;;;;;15.70;5.53;;;;;;;17.83;63.72;98228.00;4928668;29;20066;-63
2024/03/30 10:28:45;;;;;;;5.90;1.67;;;;;;;18.09;63.79;98223.84;4928326;29;20394;-60
2024/03/30 10:31:13;;;;;;;7.80;2.65;;;;;;;18.26;61.84;98230.81;4930006;29;20051;-60
2024/03/30 10:33:39;;;;;;;6.28;1.50;;;;;;;18.17;60.40;98227.94;4927907;29;20397;-60
2024/03/30 10:36:09;;;;;;;6.88;1.95;;;;;;;17.94;59.76;98228.41;4928512;29;20051;-59
2024/03/30 10:38:37;;;;;;;6.15;1.50;;;;;;;17.64;59.67;98222.28;4929116;29;21830;-61
2024/03/30 10:41:06;;;;;;;5.18;1.58;;;;;;;17.55;59.53;98218.63;4928115;29;20055;-59
2024/03/30 10:43:34;;;;;;;6.13;1.75;;;;;;;17.23;58.91;98228.06;4928543;29;20525;-60
2024/03/30 10:46:01;;;;;;;6.80;1.58;;;;;;;16.48;59.05;98228.06;4928898;29;20047;-60
2024/03/30 10:48:29;;;;;;;9.18;2.95;;;;;;;15.83;61.10;98226.38;4929005;29;20058;-60
2024/03/30 10:50:57;;;;;;;4.72;1.20;;;;;;;16.08;60.15;98219.28;4913705;29;20055;-59
2024/03/30 10:53:23;;;;;;;9.82;2.05;;;;;;;15.61;60.12;98230.19;4932767;29;20508;-60
2024/03/30 10:55:49;;;;;;;7.30;2.25;;;;;;;14.60;61.78;98215.59;4931653;29;20516;-60
2024/03/30 10:58:16;;;;;;;7.32;2.45;;;;;;;13.80;63.63;98208.56;4933484;29;20062;-60
2024/03/30 11:00:43;;;;;;;10.02;1.83;;;;;;;13.41;65.17;98211.31;4921173;29;20505;-59
2024/03/30 11:03:12;;;;;;;8.77;2.47;;;;;;;13.38;65.28;98212.16;4926720;29;20524;-60
2024/03/30 11:05:39;;;;;;;6.47;1.85;;;;;;;13.60;64.91;98210.56;4925792;29;20065;-60
2024/03/30 11:08:08;;;;;;;4.80;1.58;;;;;;;13.86;64.80;98214.41;4944579;29;20058;-60
2024/03/30 11:10:34;;;;;;;6.05;1.50;;;;;;;13.93;65.28;98209.47;4915030;29;20040;-60
2024/03/30 11:13:01;;;;;;;2.70;0.70;;;;;;;13.94;65.85;98204.69;4918884;29;20058;-60
2024/03/30 11:15:32;;;;;;;11.55;1.60;;;;;;;13.70;66.62;98195.66;4928414;29;20054;-59
2024/03/30 11:18:02;;;;;;;5.10;1.02;;;;;;;13.57;67.34;98194.72;4933911;29;20043;-59
2024/03/30 11:20:56;;;;;;;4.10;1.08;;;;;;;13.55;67.47;98199.16;4934314;29;20039;-59
2024/03/30 11:23:38;;;;;;;7.15;1.00;;;;;;;13.42;67.47;98207.34;4934143;29;20489;-61
2024/03/30 11:26:17;;;;;;;4.03;0.57;;;;;;;13.26;67.50;98201.66;4934090;29;20047;-59
2024/03/30 11:28:58;;;;;;;2.20;0.70;;;;;;;13.19;67.78;98210.13;4936801;28;20051;-59
2024/03/30 11:31:48;;;;;;;6.10;0.80;;;;;;;13.06;67.64;98209.13;4933306;29;20055;-59
2024/03/30 11:34:40;;;;;;;5.75;1.55;;;;;;;12.63;67.36;98218.16;4930904;29;20828;-59
2024/03/30 11:37:26;;;;;;;;;;;;;;;12.27;68.02;98216.31;4931647;29;20130;-60
2024/03/30 11:39:58;;;;;;;1.35;0.60;;;;;;;12.20;68.68;98223.53;4948204;29;20384;-59
2024/03/30 11:42:58;;;;;;;1.45;0.43;;;;;;;12.14;68.67;98208.56;4932852;29;20437;-59
2024/03/30 11:45:31;;;;;;;3.90;0.40;;;;;;;12.04;68.70;98226.16;4921333;29;20070;-60